sensor_id;sensor_type;location;lat;lon;timestamp;temperature;humidity
23452;DHT22;11898;51.130;6.780;2023-07-28T00:00:24;20.80;99.90
23452;DHT22;11898;51.130;6.780;2023-07-28T00:02:53;20.90;99.90
23452;DHT22;11898;51.130;6.780;2023-07-28T00:05:23;20.90;99.90
23452;DHT22;11898;51.130;6.780;2023-07-28T00:07:52;20.90;99.90
23452;DHT22;11898;51.130;6.780;2023-07-28T00:10:21;20.90;99.90
23452;DHT22;11898;51.130;6.780;2023-07-28T00:12:49;20.90;99.90
23452;DHT22;11898;51.130;6.780;2023-07-28T00:15:18;20.90;99.90
23452;DHT22;11898;51.130;6.780;2023-07-28T00:17:47;20.90;99.90
23452;DHT22;11898;51.130;6.780;2023-07-28T00:20:15;20.90;99.90
23452;DHT22;11898;51.130;6.780;2023-07-28T00:22:44;20.90;99.90
23452;DHT22;11898;51.130;6.780;2023-07-28T00:25:13;20.90;99.90
23452;DHT22;11898;51.130;6.780;2023-07-28T00:27:41;21.00;99.90
23452;DHT22;11898;51.130;6.780;2023-07-28T00:30:11;21.00;99.90
23452;DHT22;11898;51.130;6.780;2023-07-28T00:32:40;21.00;99.90
23452;DHT22;11898;51.130;6.780;2023-07-28T00:35:09;21.00;99.90
23452;DHT22;11898;51.130;6.780;2023-07-28T00:37:37;21.00;99.90
23452;DHT22;11898;51.130;6.780;2023-07-28T00:40:06;21.00;99.90
23452;DHT22;11898;51.130;6.780;2023-07-28T00:42:35;21.00;99.90
23452;DHT22;11898;51.130;6.780;2023-07-28T00:45:05;21.00;99.90
23452;DHT22;11898;51.130;6.780;2023-07-28T00:47:34;21.00;99.90
23452;DHT22;11898;51.130;6.780;2023-07-28T00:50:03;21.00;99.90
23452;DHT22;11898;51.130;6.780;2023-07-28T00:52:32;21.00;99.90
23452;DHT22;11898;51.130;6.780;2023-07-28T00:55:01;21.00;99.90
23452;DHT22;11898;51.130;6.780;2023-07-28T00:57:30;21.00;99.90
23452;DHT22;11898;51.130;6.780;2023-07-28T00:59:59;21.00;99.90
23452;DHT22;11898;51.130;6.780;2023-07-28T01:02:28;21.00;99.90
23452;DHT22;11898;51.130;6.780;2023-07-28T01:04:58;21.00;99.90
23452;DHT22;11898;51.130;6.780;2023-07-28T01:10:16;21.00;99.90
23452;DHT22;11898;51.130;6.780;2023-07-28T01:12:44;21.00;99.90
23452;DHT22;11898;51.130;6.780;2023-07-28T01:15:13;20.90;99.90
23452;DHT22;11898;51.130;6.780;2023-07-28T01:17:42;20.90;99.90
23452;DHT22;11898;51.130;6.780;2023-07-28T01:20:11;20.90;99.90
23452;DHT22;11898;51.130;6.780;2023-07-28T01:23:05;20.90;99.90
23452;DHT22;11898;51.130;6.780;2023-07-28T01:25:49;20.90;99.90
23452;DHT22;11898;51.130;6.780;2023-07-28T01:28:39;20.90;99.90
23452;DHT22;11898;51.130;6.780;2023-07-28T01:31:09;20.80;99.90
23452;DHT22;11898;51.130;6.780;2023-07-28T01:33:37;20.80;99.90
23452;DHT22;11898;51.130;6.780;2023-07-28T01:36:06;20.80;99.90
23452;DHT22;11898;51.130;6.780;2023-07-28T01:38:35;20.80;99.90
23452;DHT22;11898;51.130;6.780;2023-07-28T01:41:03;20.80;99.90
23452;DHT22;11898;51.130;6.780;2023-07-28T01:43:32;20.80;99.90
23452;DHT22;11898;51.130;6.780;2023-07-28T01:46:01;20.80;99.90
23452;DHT22;11898;51.130;6.780;2023-07-28T01:48:30;20.80;99.90
23452;DHT22;11898;51.130;6.780;2023-07-28T01:50:58;20.80;99.90
23452;DHT22;11898;51.130;6.780;2023-07-28T01:53:27;20.80;99.90
23452;DHT22;11898;51.130;6.780;2023-07-28T01:55:56;20.80;99.90
23452;DHT22;11898;51.130;6.780;2023-07-28T01:58:24;20.80;99.90
23452;DHT22;11898;51.130;6.780;2023-07-28T02:00:53;20.80;99.90
23452;DHT22;11898;51.130;6.780;2023-07-28T02:03:22;20.80;99.90
23452;DHT22;11898;51.130;6.780;2023-07-28T02:05:50;20.80;99.90
23452;DHT22;11898;51.130;6.780;2023-07-28T02:08:20;20.70;99.90
23452;DHT22;11898;51.130;6.780;2023-07-28T02:10:49;20.70;99.90
23452;DHT22;11898;51.130;6.780;2023-07-28T02:13:17;20.80;99.90
23452;DHT22;11898;51.130;6.780;2023-07-28T02:15:46;20.70;99.90
23452;DHT22;11898;51.130;6.780;2023-07-28T02:18:15;20.70;99.90
23452;DHT22;11898;51.130;6.780;2023-07-28T02:20:43;20.70;99.90
23452;DHT22;11898;51.130;6.780;2023-07-28T02:23:12;20.70;99.90
23452;DHT22;11898;51.130;6.780;2023-07-28T02:25:41;20.70;99.90
23452;DHT22;11898;51.130;6.780;2023-07-28T02:28:10;20.70;99.90
23452;DHT22;11898;51.130;6.780;2023-07-28T02:30:39;20.70;99.90
23452;DHT22;11898;51.130;6.780;2023-07-28T02:33:08;20.70;99.90
23452;DHT22;11898;51.130;6.780;2023-07-28T02:35:37;20.70;99.90
23452;DHT22;11898;51.130;6.780;2023-07-28T02:38:05;20.70;99.90
23452;DHT22;11898;51.130;6.780;2023-07-28T02:40:34;20.70;99.90
23452;DHT22;11898;51.130;6.780;2023-07-28T02:43:03;20.70;99.90
23452;DHT22;11898;51.130;6.780;2023-07-28T02:45:31;20.70;99.90
23452;DHT22;11898;51.130;6.780;2023-07-28T02:48:00;20.70;99.90
23452;DHT22;11898;51.130;6.780;2023-07-28T02:50:29;20.60;99.90
23452;DHT22;11898;51.130;6.780;2023-07-28T02:52:57;20.60;99.90
23452;DHT22;11898;51.130;6.780;2023-07-28T02:55:26;20.60;99.90
23452;DHT22;11898;51.130;6.780;2023-07-28T02:57:55;20.60;99.90
23452;DHT22;11898;51.130;6.780;2023-07-28T03:00:23;20.60;99.90
23452;DHT22;11898;51.130;6.780;2023-07-28T03:02:52;20.70;99.90
23452;DHT22;11898;51.130;6.780;2023-07-28T03:05:21;20.70;99.90
23452;DHT22;11898;51.130;6.780;2023-07-28T03:07:50;20.70;99.90
23452;DHT22;11898;51.130;6.780;2023-07-28T03:10:18;20.70;99.90
23452;DHT22;11898;51.130;6.780;2023-07-28T03:12:47;20.70;99.90
23452;DHT22;11898;51.130;6.780;2023-07-28T03:15:16;20.70;99.90
23452;DHT22;11898;51.130;6.780;2023-07-28T03:17:45;20.70;99.90
23452;DHT22;11898;51.130;6.780;2023-07-28T03:20:13;20.70;99.90
23452;DHT22;11898;51.130;6.780;2023-07-28T03:22:42;20.60;99.90
23452;DHT22;11898;51.130;6.780;2023-07-28T03:25:12;20.70;99.90
23452;DHT22;11898;51.130;6.780;2023-07-28T03:27:40;20.70;99.90
23452;DHT22;11898;51.130;6.780;2023-07-28T03:30:09;20.60;99.90
23452;DHT22;11898;51.130;6.780;2023-07-28T03:32:39;20.60;99.90
23452;DHT22;11898;51.130;6.780;2023-07-28T03:35:08;20.60;99.90
23452;DHT22;11898;51.130;6.780;2023-07-28T03:37:37;20.60;99.90
23452;DHT22;11898;51.130;6.780;2023-07-28T03:40:06;20.60;99.90
23452;DHT22;11898;51.130;6.780;2023-07-28T03:42:35;20.60;99.90
23452;DHT22;11898;51.130;6.780;2023-07-28T03:45:04;20.60;99.90
23452;DHT22;11898;51.130;6.780;2023-07-28T03:47:33;20.60;99.90
23452;DHT22;11898;51.130;6.780;2023-07-28T03:50:01;20.60;99.90
23452;DHT22;11898;51.130;6.780;2023-07-28T03:52:30;20.60;99.90
23452;DHT22;11898;51.130;6.780;2023-07-28T03:54:58;20.60;99.90
23452;DHT22;11898;51.130;6.780;2023-07-28T03:57:27;20.60;99.90
23452;DHT22;11898;51.130;6.780;2023-07-28T03:59:56;20.60;99.90
23452;DHT22;11898;51.130;6.780;2023-07-28T04:02:24;20.60;99.90
23452;DHT22;11898;51.130;6.780;2023-07-28T04:04:54;20.60;99.90
23452;DHT22;11898;51.130;6.780;2023-07-28T04:07:23;20.60;99.90
23452;DHT22;11898;51.130;6.780;2023-07-28T04:09:52;20.60;99.90
23452;DHT22;11898;51.130;6.780;2023-07-28T04:12:20;20.60;99.90
23452;DHT22;11898;51.130;6.780;2023-07-28T04:14:49;20.60;99.90
23452;DHT22;11898;51.130;6.780;2023-07-28T04:17:18;20.60;99.90
23452;DHT22;11898;51.130;6.780;2023-07-28T04:19:46;20.70;99.90
23452;DHT22;11898;51.130;6.780;2023-07-28T04:22:15;20.70;99.90
23452;DHT22;11898;51.130;6.780;2023-07-28T04:24:45;20.70;99.90
23452;DHT22;11898;51.130;6.780;2023-07-28T04:27:15;20.70;99.90
23452;DHT22;11898;51.130;6.780;2023-07-28T04:29:43;20.70;99.90
23452;DHT22;11898;51.130;6.780;2023-07-28T04:32:12;20.80;99.90
23452;DHT22;11898;51.130;6.780;2023-07-28T04:34:41;20.80;99.90
23452;DHT22;11898;51.130;6.780;2023-07-28T04:37:10;20.80;99.90
23452;DHT22;11898;51.130;6.780;2023-07-28T04:39:39;20.80;99.90
23452;DHT22;11898;51.130;6.780;2023-07-28T04:42:08;20.80;99.90
23452;DHT22;11898;51.130;6.780;2023-07-28T04:44:38;20.80;99.90
23452;DHT22;11898;51.130;6.780;2023-07-28T04:47:10;20.80;99.90
23452;DHT22;11898;51.130;6.780;2023-07-28T04:49:38;20.80;99.90
23452;DHT22;11898;51.130;6.780;2023-07-28T04:52:08;20.80;99.90
23452;DHT22;11898;51.130;6.780;2023-07-28T04:54:36;20.80;99.90
23452;DHT22;11898;51.130;6.780;2023-07-28T04:57:05;20.80;99.90
23452;DHT22;11898;51.130;6.780;2023-07-28T04:59:34;20.80;99.90
23452;DHT22;11898;51.130;6.780;2023-07-28T05:02:03;20.90;99.90
23452;DHT22;11898;51.130;6.780;2023-07-28T05:04:31;20.90;99.90
23452;DHT22;11898;51.130;6.780;2023-07-28T05:07:00;20.90;99.90
23452;DHT22;11898;51.130;6.780;2023-07-28T05:09:29;20.90;99.90
23452;DHT22;11898;51.130;6.780;2023-07-28T05:11:58;20.90;99.90
23452;DHT22;11898;51.130;6.780;2023-07-28T05:14:27;20.90;99.90
23452;DHT22;11898;51.130;6.780;2023-07-28T05:16:56;20.90;99.90
23452;DHT22;11898;51.130;6.780;2023-07-28T05:19:25;21.00;99.90
23452;DHT22;11898;51.130;6.780;2023-07-28T05:21:54;21.00;99.90
23452;DHT22;11898;51.130;6.780;2023-07-28T05:24:22;21.00;99.90
23452;DHT22;11898;51.130;6.780;2023-07-28T05:26:51;21.00;99.90
23452;DHT22;11898;51.130;6.780;2023-07-28T05:29:20;21.00;99.90
23452;DHT22;11898;51.130;6.780;2023-07-28T05:31:49;21.00;99.90
23452;DHT22;11898;51.130;6.780;2023-07-28T05:34:17;21.00;99.90
23452;DHT22;11898;51.130;6.780;2023-07-28T05:36:46;21.10;99.90
23452;DHT22;11898;51.130;6.780;2023-07-28T05:39:15;21.10;99.90
23452;DHT22;11898;51.130;6.780;2023-07-28T05:41:43;21.00;99.90
23452;DHT22;11898;51.130;6.780;2023-07-28T05:44:12;21.00;99.90
23452;DHT22;11898;51.130;6.780;2023-07-28T05:46:41;21.00;99.90
23452;DHT22;11898;51.130;6.780;2023-07-28T05:49:09;21.00;99.90
23452;DHT22;11898;51.130;6.780;2023-07-28T05:51:38;21.00;99.90
23452;DHT22;11898;51.130;6.780;2023-07-28T05:54:07;21.00;99.90
23452;DHT22;11898;51.130;6.780;2023-07-28T05:56:35;21.00;99.90
23452;DHT22;11898;51.130;6.780;2023-07-28T05:59:04;21.10;99.90
23452;DHT22;11898;51.130;6.780;2023-07-28T06:01:33;21.00;99.90
23452;DHT22;11898;51.130;6.780;2023-07-28T06:04:02;21.10;99.90
23452;DHT22;11898;51.130;6.780;2023-07-28T06:06:31;21.10;99.90
23452;DHT22;11898;51.130;6.780;2023-07-28T06:08:59;21.10;99.90
23452;DHT22;11898;51.130;6.780;2023-07-28T06:11:28;21.10;99.90
23452;DHT22;11898;51.130;6.780;2023-07-28T06:13:57;21.10;99.90
23452;DHT22;11898;51.130;6.780;2023-07-28T06:16:25;21.10;99.90
23452;DHT22;11898;51.130;6.780;2023-07-28T06:18:54;21.10;99.90
23452;DHT22;11898;51.130;6.780;2023-07-28T06:21:23;21.10;99.90
23452;DHT22;11898;51.130;6.780;2023-07-28T06:23:52;21.20;99.90
23452;DHT22;11898;51.130;6.780;2023-07-28T06:26:21;21.20;99.90
23452;DHT22;11898;51.130;6.780;2023-07-28T06:28:50;21.20;99.90
23452;DHT22;11898;51.130;6.780;2023-07-28T06:31:19;21.20;99.90
23452;DHT22;11898;51.130;6.780;2023-07-28T06:33:48;21.30;99.90
23452;DHT22;11898;51.130;6.780;2023-07-28T06:36:17;21.20;99.90
23452;DHT22;11898;51.130;6.780;2023-07-28T06:38:45;21.30;99.90
23452;DHT22;11898;51.130;6.780;2023-07-28T06:41:16;21.30;99.90
23452;DHT22;11898;51.130;6.780;2023-07-28T06:43:45;21.30;99.90
23452;DHT22;11898;51.130;6.780;2023-07-28T06:46:16;21.30;99.90
23452;DHT22;11898;51.130;6.780;2023-07-28T06:48:45;21.40;99.90
23452;DHT22;11898;51.130;6.780;2023-07-28T06:51:13;21.40;99.90
23452;DHT22;11898;51.130;6.780;2023-07-28T06:53:42;21.40;99.90
23452;DHT22;11898;51.130;6.780;2023-07-28T06:56:11;21.40;99.90
23452;DHT22;11898;51.130;6.780;2023-07-28T06:58:40;21.40;99.90
23452;DHT22;11898;51.130;6.780;2023-07-28T07:01:11;21.50;99.90
23452;DHT22;11898;51.130;6.780;2023-07-28T07:03:39;21.50;99.90
23452;DHT22;11898;51.130;6.780;2023-07-28T07:06:08;21.50;99.90
23452;DHT22;11898;51.130;6.780;2023-07-28T07:08:37;21.50;99.90
23452;DHT22;11898;51.130;6.780;2023-07-28T07:11:06;21.40;99.90
23452;DHT22;11898;51.130;6.780;2023-07-28T07:13:35;21.50;99.90
23452;DHT22;11898;51.130;6.780;2023-07-28T07:16:04;21.50;99.90
23452;DHT22;11898;51.130;6.780;2023-07-28T07:18:34;21.50;99.90
23452;DHT22;11898;51.130;6.780;2023-07-28T07:21:03;21.50;99.90
23452;DHT22;11898;51.130;6.780;2023-07-28T07:23:33;21.50;99.90
23452;DHT22;11898;51.130;6.780;2023-07-28T07:26:02;21.60;99.90
23452;DHT22;11898;51.130;6.780;2023-07-28T07:28:31;21.60;99.90
23452;DHT22;11898;51.130;6.780;2023-07-28T07:31:02;21.60;99.90
23452;DHT22;11898;51.130;6.780;2023-07-28T07:33:32;21.70;99.90
23452;DHT22;11898;51.130;6.780;2023-07-28T07:36:01;21.60;99.90
23452;DHT22;11898;51.130;6.780;2023-07-28T07:38:30;21.70;99.90
23452;DHT22;11898;51.130;6.780;2023-07-28T07:40:59;21.70;99.90
23452;DHT22;11898;51.130;6.780;2023-07-28T07:43:29;21.70;99.90
23452;DHT22;11898;51.130;6.780;2023-07-28T07:46:00;21.70;99.90
23452;DHT22;11898;51.130;6.780;2023-07-28T07:48:29;21.80;99.90
23452;DHT22;11898;51.130;6.780;2023-07-28T07:50:58;21.80;99.90
23452;DHT22;11898;51.130;6.780;2023-07-28T07:53:27;21.80;99.90
23452;DHT22;11898;51.130;6.780;2023-07-28T07:55:56;21.90;99.90
23452;DHT22;11898;51.130;6.780;2023-07-28T07:58:24;21.90;99.90
23452;DHT22;11898;51.130;6.780;2023-07-28T08:00:56;21.90;99.90
23452;DHT22;11898;51.130;6.780;2023-07-28T08:03:25;21.90;99.90
23452;DHT22;11898;51.130;6.780;2023-07-28T08:05:55;21.90;99.90
23452;DHT22;11898;51.130;6.780;2023-07-28T08:08:24;21.90;99.90
23452;DHT22;11898;51.130;6.780;2023-07-28T08:10:54;21.90;99.90
23452;DHT22;11898;51.130;6.780;2023-07-28T08:13:23;21.90;99.90
23452;DHT22;11898;51.130;6.780;2023-07-28T08:15:52;21.90;99.90
23452;DHT22;11898;51.130;6.780;2023-07-28T08:18:22;22.00;99.90
23452;DHT22;11898;51.130;6.780;2023-07-28T08:20:51;22.00;99.90
23452;DHT22;11898;51.130;6.780;2023-07-28T08:23:22;22.00;99.90
23452;DHT22;11898;51.130;6.780;2023-07-28T08:25:50;22.00;99.90
23452;DHT22;11898;51.130;6.780;2023-07-28T08:28:23;22.10;99.90
23452;DHT22;11898;51.130;6.780;2023-07-28T08:30:55;22.10;99.90
23452;DHT22;11898;51.130;6.780;2023-07-28T08:33:24;22.10;99.90
23452;DHT22;11898;51.130;6.780;2023-07-28T08:35:53;22.20;99.90
23452;DHT22;11898;51.130;6.780;2023-07-28T08:38:22;22.20;99.90
23452;DHT22;11898;51.130;6.780;2023-07-28T08:40:50;22.30;99.90
23452;DHT22;11898;51.130;6.780;2023-07-28T08:43:19;22.40;99.90
23452;DHT22;11898;51.130;6.780;2023-07-28T08:45:48;22.40;99.90
23452;DHT22;11898;51.130;6.780;2023-07-28T08:48:17;22.50;99.90
23452;DHT22;11898;51.130;6.780;2023-07-28T08:50:46;22.60;99.90
23452;DHT22;11898;51.130;6.780;2023-07-28T08:53:15;22.70;99.90
23452;DHT22;11898;51.130;6.780;2023-07-28T08:55:43;22.80;99.90
23452;DHT22;11898;51.130;6.780;2023-07-28T08:58:20;22.90;99.90
23452;DHT22;11898;51.130;6.780;2023-07-28T09:00:50;23.00;99.90
23452;DHT22;11898;51.130;6.780;2023-07-28T09:03:21;23.10;99.90
23452;DHT22;11898;51.130;6.780;2023-07-28T09:05:50;23.20;99.90
23452;DHT22;11898;51.130;6.780;2023-07-28T09:08:19;23.40;99.90
23452;DHT22;11898;51.130;6.780;2023-07-28T09:10:49;23.50;99.90
23452;DHT22;11898;51.130;6.780;2023-07-28T09:13:19;23.60;99.90
23452;DHT22;11898;51.130;6.780;2023-07-28T09:15:47;23.80;99.90
23452;DHT22;11898;51.130;6.780;2023-07-28T09:18:18;23.90;99.90
23452;DHT22;11898;51.130;6.780;2023-07-28T09:20:47;24.00;99.90
23452;DHT22;11898;51.130;6.780;2023-07-28T09:23:16;24.10;99.90
23452;DHT22;11898;51.130;6.780;2023-07-28T09:25:46;24.10;99.90
23452;DHT22;11898;51.130;6.780;2023-07-28T09:28:15;24.10;99.90
23452;DHT22;11898;51.130;6.780;2023-07-28T09:30:50;24.00;99.90
23452;DHT22;11898;51.130;6.780;2023-07-28T09:33:30;24.00;99.90
23452;DHT22;11898;51.130;6.780;2023-07-28T09:36:10;24.00;99.90
23452;DHT22;11898;51.130;6.780;2023-07-28T09:38:40;24.00;99.90
23452;DHT22;11898;51.130;6.780;2023-07-28T09:41:10;23.90;99.90
23452;DHT22;11898;51.130;6.780;2023-07-28T09:43:40;23.90;99.90
23452;DHT22;11898;51.130;6.780;2023-07-28T09:46:11;24.00;99.90
23452;DHT22;11898;51.130;6.780;2023-07-28T09:48:44;24.10;99.90
23452;DHT22;11898;51.130;6.780;2023-07-28T09:51:17;24.10;99.90
23452;DHT22;11898;51.130;6.780;2023-07-28T09:53:49;24.30;99.90
23452;DHT22;11898;51.130;6.780;2023-07-28T09:56:22;24.40;99.90
23452;DHT22;11898;51.130;6.780;2023-07-28T09:58:53;24.50;99.90
23452;DHT22;11898;51.130;6.780;2023-07-28T10:01:23;24.60;99.90
23452;DHT22;11898;51.130;6.780;2023-07-28T10:03:52;24.60;99.90
23452;DHT22;11898;51.130;6.780;2023-07-28T10:06:21;24.70;99.90
23452;DHT22;11898;51.130;6.780;2023-07-28T10:08:51;24.80;99.90
23452;DHT22;11898;51.130;6.780;2023-07-28T10:11:21;24.90;99.90
23452;DHT22;11898;51.130;6.780;2023-07-28T10:13:52;24.90;99.90
23452;DHT22;11898;51.130;6.780;2023-07-28T10:16:32;24.90;99.90
23452;DHT22;11898;51.130;6.780;2023-07-28T10:18:59;24.80;99.90
23452;DHT22;11898;51.130;6.780;2023-07-28T10:21:28;24.80;99.90
23452;DHT22;11898;51.130;6.780;2023-07-28T10:23:58;24.80;99.90
23452;DHT22;11898;51.130;6.780;2023-07-28T10:26:40;24.80;99.90
23452;DHT22;11898;51.130;6.780;2023-07-28T10:29:22;24.80;99.90
23452;DHT22;11898;51.130;6.780;2023-07-28T10:31:53;24.70;99.90
23452;DHT22;11898;51.130;6.780;2023-07-28T10:34:22;24.70;99.90
23452;DHT22;11898;51.130;6.780;2023-07-28T10:37:00;24.70;99.90
23452;DHT22;11898;51.130;6.780;2023-07-28T10:39:29;24.70;99.90
23452;DHT22;11898;51.130;6.780;2023-07-28T10:42:04;24.70;99.90
23452;DHT22;11898;51.130;6.780;2023-07-28T10:44:33;24.60;99.90
23452;DHT22;11898;51.130;6.780;2023-07-28T10:47:07;24.70;99.90
23452;DHT22;11898;51.130;6.780;2023-07-28T10:49:37;24.70;99.90
23452;DHT22;11898;51.130;6.780;2023-07-28T10:52:06;24.80;99.90
23452;DHT22;11898;51.130;6.780;2023-07-28T10:54:36;24.90;99.90
23452;DHT22;11898;51.130;6.780;2023-07-28T10:57:05;25.10;99.90
23452;DHT22;11898;51.130;6.780;2023-07-28T10:59:35;25.20;99.90
23452;DHT22;11898;51.130;6.780;2023-07-28T11:02:04;25.40;99.90
23452;DHT22;11898;51.130;6.780;2023-07-28T11:04:33;25.40;99.90
23452;DHT22;11898;51.130;6.780;2023-07-28T11:07:02;25.50;99.90
23452;DHT22;11898;51.130;6.780;2023-07-28T11:09:31;25.50;99.90
23452;DHT22;11898;51.130;6.780;2023-07-28T11:12:00;25.50;99.90
23452;DHT22;11898;51.130;6.780;2023-07-28T11:14:29;25.60;99.90
23452;DHT22;11898;51.130;6.780;2023-07-28T11:16:57;25.50;99.90
23452;DHT22;11898;51.130;6.780;2023-07-28T11:19:26;25.50;99.90
23452;DHT22;11898;51.130;6.780;2023-07-28T11:21:55;25.50;99.90
23452;DHT22;11898;51.130;6.780;2023-07-28T11:24:26;25.50;99.90
23452;DHT22;11898;51.130;6.780;2023-07-28T11:26:57;25.60;99.90
23452;DHT22;11898;51.130;6.780;2023-07-28T11:29:27;25.70;99.90
23452;DHT22;11898;51.130;6.780;2023-07-28T11:31:56;25.80;99.90
23452;DHT22;11898;51.130;6.780;2023-07-28T11:34:25;26.00;99.90
23452;DHT22;11898;51.130;6.780;2023-07-28T11:36:54;26.10;99.90
23452;DHT22;11898;51.130;6.780;2023-07-28T11:39:24;26.40;99.90
23452;DHT22;11898;51.130;6.780;2023-07-28T11:41:53;26.60;99.90
23452;DHT22;11898;51.130;6.780;2023-07-28T11:44:27;26.80;99.90
23452;DHT22;11898;51.130;6.780;2023-07-28T11:46:53;27.10;99.90
23452;DHT22;11898;51.130;6.780;2023-07-28T11:49:23;27.30;99.90
23452;DHT22;11898;51.130;6.780;2023-07-28T11:51:54;27.40;99.90
23452;DHT22;11898;51.130;6.780;2023-07-28T11:54:26;27.50;99.90
23452;DHT22;11898;51.130;6.780;2023-07-28T11:56:56;27.60;99.90
23452;DHT22;11898;51.130;6.780;2023-07-28T11:59:26;27.60;99.90
23452;DHT22;11898;51.130;6.780;2023-07-28T12:02:04;27.60;99.90
23452;DHT22;11898;51.130;6.780;2023-07-28T12:04:35;27.60;99.90
23452;DHT22;11898;51.130;6.780;2023-07-28T12:07:13;27.60;99.90
23452;DHT22;11898;51.130;6.780;2023-07-28T12:12:23;27.40;99.90
23452;DHT22;11898;51.130;6.780;2023-07-28T12:14:54;27.40;99.90
23452;DHT22;11898;51.130;6.780;2023-07-28T12:17:26;27.40;99.90
23452;DHT22;11898;51.130;6.780;2023-07-28T12:20:05;27.30;99.90
23452;DHT22;11898;51.130;6.780;2023-07-28T12:22:42;27.30;99.90
23452;DHT22;11898;51.130;6.780;2023-07-28T12:25:13;27.20;99.90
23452;DHT22;11898;51.130;6.780;2023-07-28T12:27:43;27.00;99.90
23452;DHT22;11898;51.130;6.780;2023-07-28T12:30:12;26.80;99.90
23452;DHT22;11898;51.130;6.780;2023-07-28T12:32:43;26.70;99.90
23452;DHT22;11898;51.130;6.780;2023-07-28T12:35:14;26.70;99.90
23452;DHT22;11898;51.130;6.780;2023-07-28T12:37:44;26.70;99.90
23452;DHT22;11898;51.130;6.780;2023-07-28T12:40:14;26.70;99.90
23452;DHT22;11898;51.130;6.780;2023-07-28T12:42:46;26.60;99.90
23452;DHT22;11898;51.130;6.780;2023-07-28T12:45:17;26.60;99.90
23452;DHT22;11898;51.130;6.780;2023-07-28T12:47:47;26.60;99.90
23452;DHT22;11898;51.130;6.780;2023-07-28T12:50:17;26.60;99.90
23452;DHT22;11898;51.130;6.780;2023-07-28T12:52:47;26.60;99.90
23452;DHT22;11898;51.130;6.780;2023-07-28T12:55:18;26.60;99.90
23452;DHT22;11898;51.130;6.780;2023-07-28T12:57:46;26.60;99.90
23452;DHT22;11898;51.130;6.780;2023-07-28T13:00:18;26.50;99.90
23452;DHT22;11898;51.130;6.780;2023-07-28T13:02:48;26.40;99.90
23452;DHT22;11898;51.130;6.780;2023-07-28T13:05:18;26.30;99.90
23452;DHT22;11898;51.130;6.780;2023-07-28T13:07:46;26.10;99.90
23452;DHT22;11898;51.130;6.780;2023-07-28T13:10:17;26.00;99.90
23452;DHT22;11898;51.130;6.780;2023-07-28T13:12:47;25.80;99.90
23452;DHT22;11898;51.130;6.780;2023-07-28T13:15:17;25.70;99.90
23452;DHT22;11898;51.130;6.780;2023-07-28T13:17:45;25.70;99.90
23452;DHT22;11898;51.130;6.780;2023-07-28T13:20:14;25.60;99.90
23452;DHT22;11898;51.130;6.780;2023-07-28T13:22:43;25.60;99.90
23452;DHT22;11898;51.130;6.780;2023-07-28T13:25:12;25.50;99.90
23452;DHT22;11898;51.130;6.780;2023-07-28T13:27:41;25.50;99.90
23452;DHT22;11898;51.130;6.780;2023-07-28T13:30:10;25.40;99.90
23452;DHT22;11898;51.130;6.780;2023-07-28T13:32:38;25.40;99.90
23452;DHT22;11898;51.130;6.780;2023-07-28T13:35:07;25.30;99.90
23452;DHT22;11898;51.130;6.780;2023-07-28T13:37:36;25.30;99.90
23452;DHT22;11898;51.130;6.780;2023-07-28T13:40:05;25.30;99.90
23452;DHT22;11898;51.130;6.780;2023-07-28T13:42:36;25.40;99.90
23452;DHT22;11898;51.130;6.780;2023-07-28T13:45:05;25.40;99.90
23452;DHT22;11898;51.130;6.780;2023-07-28T13:47:34;25.50;99.90
23452;DHT22;11898;51.130;6.780;2023-07-28T13:50:02;25.50;99.90
23452;DHT22;11898;51.130;6.780;2023-07-28T13:52:31;25.50;99.90
23452;DHT22;11898;51.130;6.780;2023-07-28T13:55:00;25.60;99.90
23452;DHT22;11898;51.130;6.780;2023-07-28T13:57:35;25.60;99.90
23452;DHT22;11898;51.130;6.780;2023-07-28T14:00:01;25.60;99.90
23452;DHT22;11898;51.130;6.780;2023-07-28T14:02:30;25.60;99.90
23452;DHT22;11898;51.130;6.780;2023-07-28T14:04:59;25.60;99.90
23452;DHT22;11898;51.130;6.780;2023-07-28T14:07:28;25.50;99.90
23452;DHT22;11898;51.130;6.780;2023-07-28T14:09:57;25.40;99.90
23452;DHT22;11898;51.130;6.780;2023-07-28T14:12:25;25.40;99.90
23452;DHT22;11898;51.130;6.780;2023-07-28T14:14:54;25.30;99.90
23452;DHT22;11898;51.130;6.780;2023-07-28T14:17:23;25.20;99.90
23452;DHT22;11898;51.130;6.780;2023-07-28T14:19:52;25.20;99.90
23452;DHT22;11898;51.130;6.780;2023-07-28T14:22:22;25.10;99.90
23452;DHT22;11898;51.130;6.780;2023-07-28T14:24:50;25.00;99.90
23452;DHT22;11898;51.130;6.780;2023-07-28T14:27:19;24.90;99.90
23452;DHT22;11898;51.130;6.780;2023-07-28T14:29:48;24.80;99.90
23452;DHT22;11898;51.130;6.780;2023-07-28T14:32:16;24.70;99.90
23452;DHT22;11898;51.130;6.780;2023-07-28T14:34:45;24.70;99.90
23452;DHT22;11898;51.130;6.780;2023-07-28T14:37:14;24.60;99.90
23452;DHT22;11898;51.130;6.780;2023-07-28T14:39:43;24.50;99.90
23452;DHT22;11898;51.130;6.780;2023-07-28T14:42:11;24.40;99.90
23452;DHT22;11898;51.130;6.780;2023-07-28T14:44:40;24.40;99.90
23452;DHT22;11898;51.130;6.780;2023-07-28T14:47:09;24.40;99.90
23452;DHT22;11898;51.130;6.780;2023-07-28T14:49:38;24.40;99.90
23452;DHT22;11898;51.130;6.780;2023-07-28T14:52:07;24.40;99.90
23452;DHT22;11898;51.130;6.780;2023-07-28T14:54:36;24.40;99.90
23452;DHT22;11898;51.130;6.780;2023-07-28T14:57:04;24.50;99.90
23452;DHT22;11898;51.130;6.780;2023-07-28T14:59:35;24.60;99.90
23452;DHT22;11898;51.130;6.780;2023-07-28T15:02:03;24.70;99.90
23452;DHT22;11898;51.130;6.780;2023-07-28T15:04:32;24.70;99.90
23452;DHT22;11898;51.130;6.780;2023-07-28T15:07:01;24.80;99.90
23452;DHT22;11898;51.130;6.780;2023-07-28T15:09:29;24.90;99.90
23452;DHT22;11898;51.130;6.780;2023-07-28T15:11:58;24.90;99.90
23452;DHT22;11898;51.130;6.780;2023-07-28T15:14:29;25.00;99.90
23452;DHT22;11898;51.130;6.780;2023-07-28T15:16:58;25.10;99.90
23452;DHT22;11898;51.130;6.780;2023-07-28T15:19:27;25.10;99.90
23452;DHT22;11898;51.130;6.780;2023-07-28T15:21:55;25.10;99.90
23452;DHT22;11898;51.130;6.780;2023-07-28T15:24:24;25.10;99.90
23452;DHT22;11898;51.130;6.780;2023-07-28T15:26:53;25.10;99.90
23452;DHT22;11898;51.130;6.780;2023-07-28T15:29:22;25.10;99.90
23452;DHT22;11898;51.130;6.780;2023-07-28T15:31:50;25.10;99.90
23452;DHT22;11898;51.130;6.780;2023-07-28T15:34:21;25.10;99.90
23452;DHT22;11898;51.130;6.780;2023-07-28T15:36:50;25.00;99.90
23452;DHT22;11898;51.130;6.780;2023-07-28T15:39:18;24.90;99.90
23452;DHT22;11898;51.130;6.780;2023-07-28T15:41:47;24.80;99.90
23452;DHT22;11898;51.130;6.780;2023-07-28T15:44:16;24.70;99.90
23452;DHT22;11898;51.130;6.780;2023-07-28T15:46:45;24.60;99.90
23452;DHT22;11898;51.130;6.780;2023-07-28T15:49:13;24.40;99.90